sensor_id;sensor_type;location;lat;lon;timestamp;P1;durP1;ratioP1;P2;durP2;ratioP2
10979;SDS011;5543;51.734;8.744;2023-06-10T00:00:04;1.92;;;1.67;;
10979;SDS011;5543;51.734;8.744;2023-06-10T00:02:33;1.80;;;1.67;;
10979;SDS011;5543;51.734;8.744;2023-06-10T00:05:02;2.03;;;1.80;;
10979;SDS011;5543;51.734;8.744;2023-06-10T00:07:30;3.08;;;2.38;;
10979;SDS011;5543;51.734;8.744;2023-06-10T00:09:59;3.05;;;2.28;;
10979;SDS011;5543;51.734;8.744;2023-06-10T00:12:32;1.75;;;1.65;;
10979;SDS011;5543;51.734;8.744;2023-06-10T00:15:05;1.63;;;1.52;;
10979;SDS011;5543;51.734;8.744;2023-06-10T00:17:35;1.75;;;1.65;;
10979;SDS011;5543;51.734;8.744;2023-06-10T00:20:07;1.92;;;1.60;;
10979;SDS011;5543;51.734;8.744;2023-06-10T00:22:38;1.33;;;1.23;;
10979;SDS011;5543;51.734;8.744;2023-06-10T00:25:08;1.98;;;1.50;;
10979;SDS011;5543;51.734;8.744;2023-06-10T00:27:39;1.58;;;1.40;;
10979;SDS011;5543;51.734;8.744;2023-06-10T00:30:07;1.60;;;1.35;;
10979;SDS011;5543;51.734;8.744;2023-06-10T00:32:36;1.35;;;1.10;;
10979;SDS011;5543;51.734;8.744;2023-06-10T00:35:05;1.20;;;1.05;;
10979;SDS011;5543;51.734;8.744;2023-06-10T00:37:34;1.75;;;1.33;;
10979;SDS011;5543;51.734;8.744;2023-06-10T00:40:03;1.45;;;1.35;;
10979;SDS011;5543;51.734;8.744;2023-06-10T00:42:32;1.70;;;1.05;;
10979;SDS011;5543;51.734;8.744;2023-06-10T00:45:02;2.25;;;1.52;;
10979;SDS011;5543;51.734;8.744;2023-06-10T00:47:30;6.25;;;1.20;;
10979;SDS011;5543;51.734;8.744;2023-06-10T00:49:59;1.73;;;1.27;;
10979;SDS011;5543;51.734;8.744;2023-06-10T00:52:28;1.02;;;1.02;;
10979;SDS011;5543;51.734;8.744;2023-06-10T00:54:57;1.23;;;1.02;;
10979;SDS011;5543;51.734;8.744;2023-06-10T00:57:26;1.55;;;1.15;;
10979;SDS011;5543;51.734;8.744;2023-06-10T00:59:55;1.75;;;1.08;;
10979;SDS011;5543;51.734;8.744;2023-06-10T01:02:26;1.05;;;0.95;;
10979;SDS011;5543;51.734;8.744;2023-06-10T01:04:55;0.80;;;0.80;;
10979;SDS011;5543;51.734;8.744;2023-06-10T01:07:25;1.50;;;1.10;;
10979;SDS011;5543;51.734;8.744;2023-06-10T01:10:06;1.52;;;1.20;;
10979;SDS011;5543;51.734;8.744;2023-06-10T01:12:40;1.40;;;1.30;;
10979;SDS011;5543;51.734;8.744;2023-06-10T01:15:14;1.33;;;1.17;;
10979;SDS011;5543;51.734;8.744;2023-06-10T01:17:54;0.98;;;0.93;;
10979;SDS011;5543;51.734;8.744;2023-06-10T01:20:25;1.95;;;1.10;;
10979;SDS011;5543;51.734;8.744;2023-06-10T01:22:56;0.98;;;0.98;;
10979;SDS011;5543;51.734;8.744;2023-06-10T01:25:26;1.13;;;1.02;;
10979;SDS011;5543;51.734;8.744;2023-06-10T01:27:58;1.42;;;1.33;;
10979;SDS011;5543;51.734;8.744;2023-06-10T01:30:30;1.10;;;0.93;;
10979;SDS011;5543;51.734;8.744;2023-06-10T01:33:04;1.88;;;1.23;;
10979;SDS011;5543;51.734;8.744;2023-06-10T01:35:35;1.52;;;0.85;;
10979;SDS011;5543;51.734;8.744;2023-06-10T01:38:07;1.00;;;1.00;;
10979;SDS011;5543;51.734;8.744;2023-06-10T01:40:35;1.15;;;0.98;;
10979;SDS011;5543;51.734;8.744;2023-06-10T01:43:05;0.73;;;0.73;;
10979;SDS011;5543;51.734;8.744;2023-06-10T01:45:33;1.75;;;1.38;;
10979;SDS011;5543;51.734;8.744;2023-06-10T01:48:02;1.67;;;1.02;;
10979;SDS011;5543;51.734;8.744;2023-06-10T01:50:30;1.40;;;1.30;;
10979;SDS011;5543;51.734;8.744;2023-06-10T01:52:59;1.08;;;0.98;;
10979;SDS011;5543;51.734;8.744;2023-06-10T01:55:29;0.85;;;0.82;;
10979;SDS011;5543;51.734;8.744;2023-06-10T01:57:57;0.77;;;0.77;;
10979;SDS011;5543;51.734;8.744;2023-06-10T02:00:25;1.40;;;1.30;;
10979;SDS011;5543;51.734;8.744;2023-06-10T02:02:54;1.95;;;1.20;;
10979;SDS011;5543;51.734;8.744;2023-06-10T02:05:23;1.50;;;1.38;;
10979;SDS011;5543;51.734;8.744;2023-06-10T02:07:51;1.80;;;1.13;;
10979;SDS011;5543;51.734;8.744;2023-06-10T02:10:19;0.98;;;0.77;;
10979;SDS011;5543;51.734;8.744;2023-06-10T02:12:49;1.20;;;1.00;;
10979;SDS011;5543;51.734;8.744;2023-06-10T02:15:17;0.93;;;0.77;;
10979;SDS011;5543;51.734;8.744;2023-06-10T02:17:45;1.85;;;1.23;;
10979;SDS011;5543;51.734;8.744;2023-06-10T02:20:15;1.10;;;0.80;;
10979;SDS011;5543;51.734;8.744;2023-06-10T02:22:43;0.80;;;0.80;;
10979;SDS011;5543;51.734;8.744;2023-06-10T02:25:11;1.00;;;0.77;;
10979;SDS011;5543;51.734;8.744;2023-06-10T02:27:40;1.25;;;0.98;;
10979;SDS011;5543;51.734;8.744;2023-06-10T02:30:10;1.13;;;1.10;;
10979;SDS011;5543;51.734;8.744;2023-06-10T02:32:40;1.27;;;0.95;;
10979;SDS011;5543;51.734;8.744;2023-06-10T02:35:08;0.90;;;0.90;;
10979;SDS011;5543;51.734;8.744;2023-06-10T02:37:38;1.30;;;1.20;;
10979;SDS011;5543;51.734;8.744;2023-06-10T02:40:07;0.82;;;0.82;;
10979;SDS011;5543;51.734;8.744;2023-06-10T02:42:36;0.88;;;0.82;;
10979;SDS011;5543;51.734;8.744;2023-06-10T02:45:04;1.13;;;1.00;;
10979;SDS011;5543;51.734;8.744;2023-06-10T02:47:37;2.08;;;0.90;;
10979;SDS011;5543;51.734;8.744;2023-06-10T02:50:06;0.80;;;0.70;;
10979;SDS011;5543;51.734;8.744;2023-06-10T02:52:35;1.33;;;0.82;;
10979;SDS011;5543;51.734;8.744;2023-06-10T02:55:03;1.70;;;1.00;;
10979;SDS011;5543;51.734;8.744;2023-06-10T02:57:33;0.70;;;0.70;;
10979;SDS011;5543;51.734;8.744;2023-06-10T03:00:02;0.90;;;0.73;;
10979;SDS011;5543;51.734;8.744;2023-06-10T03:02:38;2.67;;;0.93;;
10979;SDS011;5543;51.734;8.744;2023-06-10T03:05:07;1.60;;;0.93;;
10979;SDS011;5543;51.734;8.744;2023-06-10T03:07:37;1.20;;;1.10;;
10979;SDS011;5543;51.734;8.744;2023-06-10T03:10:06;1.25;;;1.05;;
10979;SDS011;5543;51.734;8.744;2023-06-10T03:12:34;1.05;;;0.90;;
10979;SDS011;5543;51.734;8.744;2023-06-10T03:15:03;1.10;;;0.93;;
10979;SDS011;5543;51.734;8.744;2023-06-10T03:17:33;1.90;;;1.15;;
10979;SDS011;5543;51.734;8.744;2023-06-10T03:20:03;0.88;;;0.88;;
10979;SDS011;5543;51.734;8.744;2023-06-10T03:22:34;1.33;;;1.23;;
10979;SDS011;5543;51.734;8.744;2023-06-10T03:25:02;1.02;;;0.93;;
10979;SDS011;5543;51.734;8.744;2023-06-10T03:27:31;0.95;;;0.95;;
10979;SDS011;5543;51.734;8.744;2023-06-10T03:30:02;1.20;;;1.00;;
10979;SDS011;5543;51.734;8.744;2023-06-10T03:32:30;2.00;;;1.20;;
10979;SDS011;5543;51.734;8.744;2023-06-10T03:34:59;1.08;;;0.95;;
10979;SDS011;5543;51.734;8.744;2023-06-10T03:37:28;1.48;;;1.25;;
10979;SDS011;5543;51.734;8.744;2023-06-10T03:39:56;1.00;;;0.93;;
10979;SDS011;5543;51.734;8.744;2023-06-10T03:42:25;2.35;;;1.23;;
10979;SDS011;5543;51.734;8.744;2023-06-10T03:44:53;0.65;;;0.65;;
10979;SDS011;5543;51.734;8.744;2023-06-10T03:47:21;1.60;;;0.90;;
10979;SDS011;5543;51.734;8.744;2023-06-10T03:49:49;0.82;;;0.82;;
10979;SDS011;5543;51.734;8.744;2023-06-10T03:52:17;2.03;;;1.17;;
10979;SDS011;5543;51.734;8.744;2023-06-10T03:54:47;1.08;;;0.98;;
10979;SDS011;5543;51.734;8.744;2023-06-10T03:57:15;1.02;;;0.93;;
10979;SDS011;5543;51.734;8.744;2023-06-10T03:59:43;1.27;;;1.00;;
10979;SDS011;5543;51.734;8.744;2023-06-10T04:02:11;1.38;;;1.27;;
10979;SDS011;5543;51.734;8.744;2023-06-10T04:04:39;1.90;;;1.17;;
10979;SDS011;5543;51.734;8.744;2023-06-10T04:07:07;1.20;;;1.10;;
10979;SDS011;5543;51.734;8.744;2023-06-10T04:09:36;1.30;;;1.00;;
10979;SDS011;5543;51.734;8.744;2023-06-10T04:12:06;0.73;;;0.73;;
10979;SDS011;5543;51.734;8.744;2023-06-10T04:14:36;0.80;;;0.75;;
10979;SDS011;5543;51.734;8.744;2023-06-10T04:17:04;1.10;;;0.90;;
10979;SDS011;5543;51.734;8.744;2023-06-10T04:19:34;1.05;;;0.88;;
10979;SDS011;5543;51.734;8.744;2023-06-10T04:22:02;1.23;;;1.13;;
10979;SDS011;5543;51.734;8.744;2023-06-10T04:24:31;1.10;;;0.80;;
10979;SDS011;5543;51.734;8.744;2023-06-10T04:26:59;0.88;;;0.88;;
10979;SDS011;5543;51.734;8.744;2023-06-10T04:29:29;1.17;;;1.00;;
10979;SDS011;5543;51.734;8.744;2023-06-10T04:31:57;0.82;;;0.80;;
10979;SDS011;5543;51.734;8.744;2023-06-10T04:34:25;1.00;;;0.82;;
10979;SDS011;5543;51.734;8.744;2023-06-10T04:36:53;0.73;;;0.73;;
10979;SDS011;5543;51.734;8.744;2023-06-10T04:39:22;1.15;;;1.02;;
10979;SDS011;5543;51.734;8.744;2023-06-10T04:41:50;0.77;;;0.60;;
10979;SDS011;5543;51.734;8.744;2023-06-10T04:44:18;0.90;;;0.90;;
10979;SDS011;5543;51.734;8.744;2023-06-10T04:46:48;0.75;;;0.75;;
10979;SDS011;5543;51.734;8.744;2023-06-10T04:49:17;0.90;;;0.60;;
10979;SDS011;5543;51.734;8.744;2023-06-10T04:51:45;0.90;;;0.90;;
10979;SDS011;5543;51.734;8.744;2023-06-10T04:54:13;1.05;;;0.98;;
10979;SDS011;5543;51.734;8.744;2023-06-10T04:56:42;0.98;;;0.90;;
10979;SDS011;5543;51.734;8.744;2023-06-10T04:59:10;0.88;;;0.88;;
10979;SDS011;5543;51.734;8.744;2023-06-10T05:01:38;0.80;;;0.80;;
10979;SDS011;5543;51.734;8.744;2023-06-10T05:04:08;1.00;;;0.73;;
10979;SDS011;5543;51.734;8.744;2023-06-10T05:06:37;1.08;;;0.98;;
10979;SDS011;5543;51.734;8.744;2023-06-10T05:09:05;1.27;;;1.17;;
10979;SDS011;5543;51.734;8.744;2023-06-10T05:11:34;0.90;;;0.90;;
10979;SDS011;5543;51.734;8.744;2023-06-10T05:14:02;1.05;;;0.93;;
10979;SDS011;5543;51.734;8.744;2023-06-10T05:16:30;0.70;;;0.70;;
10979;SDS011;5543;51.734;8.744;2023-06-10T05:18:58;1.25;;;1.15;;
10979;SDS011;5543;51.734;8.744;2023-06-10T05:21:28;0.80;;;0.80;;
10979;SDS011;5543;51.734;8.744;2023-06-10T05:23:56;1.15;;;0.80;;
10979;SDS011;5543;51.734;8.744;2023-06-10T05:26:24;0.85;;;0.85;;
10979;SDS011;5543;51.734;8.744;2023-06-10T05:28:52;0.82;;;0.80;;
10979;SDS011;5543;51.734;8.744;2023-06-10T05:31:20;0.77;;;0.77;;
10979;SDS011;5543;51.734;8.744;2023-06-10T05:33:48;1.10;;;0.95;;
10979;SDS011;5543;51.734;8.744;2023-06-10T05:36:17;1.10;;;0.98;;
10979;SDS011;5543;51.734;8.744;2023-06-10T05:38:46;1.15;;;0.85;;
10979;SDS011;5543;51.734;8.744;2023-06-10T05:41:14;0.80;;;0.80;;
10979;SDS011;5543;51.734;8.744;2023-06-10T05:43:43;0.82;;;0.82;;
10979;SDS011;5543;51.734;8.744;2023-06-10T05:46:12;1.00;;;1.00;;
10979;SDS011;5543;51.734;8.744;2023-06-10T05:48:40;0.82;;;0.82;;
10979;SDS011;5543;51.734;8.744;2023-06-10T05:51:08;0.80;;;0.80;;
10979;SDS011;5543;51.734;8.744;2023-06-10T05:53:36;2.47;;;1.15;;
10979;SDS011;5543;51.734;8.744;2023-06-10T05:56:07;0.88;;;0.85;;
10979;SDS011;5543;51.734;8.744;2023-06-10T05:58:35;0.80;;;0.80;;
10979;SDS011;5543;51.734;8.744;2023-06-10T06:01:03;0.70;;;0.70;;
10979;SDS011;5543;51.734;8.744;2023-06-10T06:03:32;1.02;;;0.88;;
10979;SDS011;5543;51.734;8.744;2023-06-10T06:06:00;0.88;;;0.88;;
10979;SDS011;5543;51.734;8.744;2023-06-10T06:08:28;0.90;;;0.90;;
10979;SDS011;5543;51.734;8.744;2023-06-10T06:10:57;0.82;;;0.82;;
10979;SDS011;5543;51.734;8.744;2023-06-10T06:13:26;0.82;;;0.82;;
10979;SDS011;5543;51.734;8.744;2023-06-10T06:15:54;1.00;;;1.00;;
10979;SDS011;5543;51.734;8.744;2023-06-10T06:18:23;1.10;;;1.00;;
10979;SDS011;5543;51.734;8.744;2023-06-10T06:20:51;1.20;;;1.10;;
10979;SDS011;5543;51.734;8.744;2023-06-10T06:23:19;0.80;;;0.77;;
10979;SDS011;5543;51.734;8.744;2023-06-10T06:25:47;0.73;;;0.70;;
10979;SDS011;5543;51.734;8.744;2023-06-10T06:28:15;2.25;;;1.15;;
10979;SDS011;5543;51.734;8.744;2023-06-10T06:30:46;0.95;;;0.90;;
10979;SDS011;5543;51.734;8.744;2023-06-10T06:33:14;0.80;;;0.80;;
10979;SDS011;5543;51.734;8.744;2023-06-10T06:35:42;0.80;;;0.73;;
10979;SDS011;5543;51.734;8.744;2023-06-10T06:38:10;0.98;;;0.80;;
10979;SDS011;5543;51.734;8.744;2023-06-10T06:40:38;0.75;;;0.75;;
10979;SDS011;5543;51.734;8.744;2023-06-10T06:43:07;1.08;;;0.98;;
10979;SDS011;5543;51.734;8.744;2023-06-10T06:45:35;0.82;;;0.82;;
10979;SDS011;5543;51.734;8.744;2023-06-10T06:48:04;1.10;;;1.00;;
10979;SDS011;5543;51.734;8.744;2023-06-10T06:50:33;1.10;;;1.00;;
10979;SDS011;5543;51.734;8.744;2023-06-10T06:53:01;0.93;;;0.93;;
10979;SDS011;5543;51.734;8.744;2023-06-10T06:55:29;1.13;;;0.90;;
10979;SDS011;5543;51.734;8.744;2023-06-10T06:57:58;0.77;;;0.77;;
10979;SDS011;5543;51.734;8.744;2023-06-10T07:00:29;1.20;;;1.10;;
10979;SDS011;5543;51.734;8.744;2023-06-10T07:02:57;0.90;;;0.85;;
10979;SDS011;5543;51.734;8.744;2023-06-10T07:05:28;1.05;;;0.95;;
10979;SDS011;5543;51.734;8.744;2023-06-10T07:07:57;1.02;;;0.88;;
10979;SDS011;5543;51.734;8.744;2023-06-10T07:10:25;1.00;;;0.90;;
10979;SDS011;5543;51.734;8.744;2023-06-10T07:12:54;1.08;;;0.98;;
10979;SDS011;5543;51.734;8.744;2023-06-10T07:15:22;1.27;;;1.13;;
10979;SDS011;5543;51.734;8.744;2023-06-10T07:17:50;1.70;;;1.02;;
10979;SDS011;5543;51.734;8.744;2023-06-10T07:20:18;1.10;;;0.93;;
10979;SDS011;5543;51.734;8.744;2023-06-10T07:22:48;1.20;;;1.10;;
10979;SDS011;5543;51.734;8.744;2023-06-10T07:25:16;1.00;;;0.88;;
10979;SDS011;5543;51.734;8.744;2023-06-10T07:27:44;1.35;;;1.20;;
10979;SDS011;5543;51.734;8.744;2023-06-10T07:30:12;0.80;;;0.80;;
10979;SDS011;5543;51.734;8.744;2023-06-10T07:32:41;1.30;;;1.20;;
10979;SDS011;5543;51.734;8.744;2023-06-10T07:35:10;1.27;;;1.17;;
10979;SDS011;5543;51.734;8.744;2023-06-10T07:37:38;1.30;;;1.20;;
10979;SDS011;5543;51.734;8.744;2023-06-10T07:40:08;1.30;;;1.13;;
10979;SDS011;5543;51.734;8.744;2023-06-10T07:42:37;1.30;;;1.05;;
10979;SDS011;5543;51.734;8.744;2023-06-10T07:45:06;1.30;;;1.20;;
10979;SDS011;5543;51.734;8.744;2023-06-10T07:47:35;1.25;;;1.15;;
10979;SDS011;5543;51.734;8.744;2023-06-10T07:50:03;1.05;;;0.95;;
10979;SDS011;5543;51.734;8.744;2023-06-10T07:52:32;1.30;;;1.20;;
10979;SDS011;5543;51.734;8.744;2023-06-10T07:55:00;1.50;;;1.40;;
10979;SDS011;5543;51.734;8.744;2023-06-10T07:57:29;1.38;;;1.27;;
10979;SDS011;5543;51.734;8.744;2023-06-10T08:00:01;2.22;;;1.23;;
10979;SDS011;5543;51.734;8.744;2023-06-10T08:02:30;1.38;;;1.27;;
10979;SDS011;5543;51.734;8.744;2023-06-10T08:04:59;1.50;;;1.40;;
10979;SDS011;5543;51.734;8.744;2023-06-10T08:07:27;1.67;;;1.33;;
10979;SDS011;5543;51.734;8.744;2023-06-10T08:09:55;1.30;;;1.20;;
10979;SDS011;5543;51.734;8.744;2023-06-10T08:12:23;1.90;;;1.23;;
10979;SDS011;5543;51.734;8.744;2023-06-10T08:14:53;1.60;;;1.38;;
10979;SDS011;5543;51.734;8.744;2023-06-10T08:17:22;1.48;;;1.30;;
10979;SDS011;5543;51.734;8.744;2023-06-10T08:19:50;1.48;;;1.38;;
10979;SDS011;5543;51.734;8.744;2023-06-10T08:22:18;1.25;;;1.15;;
10979;SDS011;5543;51.734;8.744;2023-06-10T08:24:47;2.00;;;1.40;;
10979;SDS011;5543;51.734;8.744;2023-06-10T08:27:15;2.15;;;1.40;;
10979;SDS011;5543;51.734;8.744;2023-06-10T08:29:43;2.55;;;1.60;;
10979;SDS011;5543;51.734;8.744;2023-06-10T08:32:12;1.60;;;1.50;;
10979;SDS011;5543;51.734;8.744;2023-06-10T08:34:41;1.60;;;1.25;;
10979;SDS011;5543;51.734;8.744;2023-06-10T08:37:09;1.95;;;1.50;;
10979;SDS011;5543;51.734;8.744;2023-06-10T08:39:37;1.88;;;1.60;;
10979;SDS011;5543;51.734;8.744;2023-06-10T08:42:09;1.40;;;1.30;;
10979;SDS011;5543;51.734;8.744;2023-06-10T08:44:43;1.67;;;1.42;;
10979;SDS011;5543;51.734;8.744;2023-06-10T08:47:16;1.60;;;1.50;;
10979;SDS011;5543;51.734;8.744;2023-06-10T08:49:45;2.55;;;1.90;;
10979;SDS011;5543;51.734;8.744;2023-06-10T08:52:14;2.05;;;1.60;;
10979;SDS011;5543;51.734;8.744;2023-06-10T08:54:43;1.63;;;1.50;;
10979;SDS011;5543;51.734;8.744;2023-06-10T08:57:16;1.48;;;1.38;;
10979;SDS011;5543;51.734;8.744;2023-06-10T08:59:46;1.88;;;1.77;;
10979;SDS011;5543;51.734;8.744;2023-06-10T09:02:16;2.72;;;1.92;;
10979;SDS011;5543;51.734;8.744;2023-06-10T09:04:47;2.35;;;2.08;;
10979;SDS011;5543;51.734;8.744;2023-06-10T09:07:16;1.85;;;1.75;;
10979;SDS011;5543;51.734;8.744;2023-06-10T09:09:44;2.00;;;1.80;;
10979;SDS011;5543;51.734;8.744;2023-06-10T09:12:13;1.67;;;1.58;;
10979;SDS011;5543;51.734;8.744;2023-06-10T09:14:42;1.52;;;1.40;;
10979;SDS011;5543;51.734;8.744;2023-06-10T09:17:10;2.28;;;1.52;;
10979;SDS011;5543;51.734;8.744;2023-06-10T09:19:40;1.92;;;1.80;;
10979;SDS011;5543;51.734;8.744;2023-06-10T09:22:09;1.83;;;1.73;;
10979;SDS011;5543;51.734;8.744;2023-06-10T09:24:37;1.98;;;1.77;;
10979;SDS011;5543;51.734;8.744;2023-06-10T09:27:07;2.17;;;1.98;;
10979;SDS011;5543;51.734;8.744;2023-06-10T09:29:45;2.33;;;2.10;;
10979;SDS011;5543;51.734;8.744;2023-06-10T09:32:14;2.28;;;2.03;;
10979;SDS011;5543;51.734;8.744;2023-06-10T09:34:46;2.03;;;1.70;;
10979;SDS011;5543;51.734;8.744;2023-06-10T09:37:19;2.10;;;1.90;;
10979;SDS011;5543;51.734;8.744;2023-06-10T09:42:32;2.20;;;2.00;;
10979;SDS011;5543;51.734;8.744;2023-06-10T09:45:01;2.17;;;1.98;;
10979;SDS011;5543;51.734;8.744;2023-06-10T09:47:30;2.53;;;2.33;;
10979;SDS011;5543;51.734;8.744;2023-06-10T09:49:59;2.08;;;1.92;;
10979;SDS011;5543;51.734;8.744;2023-06-10T09:52:28;2.55;;;1.95;;
10979;SDS011;5543;51.734;8.744;2023-06-10T09:54:59;2.00;;;1.80;;
10979;SDS011;5543;51.734;8.744;2023-06-10T09:57:30;2.58;;;1.98;;
10979;SDS011;5543;51.734;8.744;2023-06-10T10:00:03;2.10;;;1.90;;
10979;SDS011;5543;51.734;8.744;2023-06-10T10:02:33;2.15;;;1.95;;
10979;SDS011;5543;51.734;8.744;2023-06-10T10:05:14;2.15;;;2.00;;
10979;SDS011;5543;51.734;8.744;2023-06-10T10:07:43;2.17;;;1.98;;
10979;SDS011;5543;51.734;8.744;2023-06-10T10:10:12;2.00;;;1.90;;
10979;SDS011;5543;51.734;8.744;2023-06-10T10:12:42;2.78;;;2.22;;
10979;SDS011;5543;51.734;8.744;2023-06-10T10:15:12;2.60;;;2.40;;
10979;SDS011;5543;51.734;8.744;2023-06-10T10:17:43;2.40;;;2.20;;
10979;SDS011;5543;51.734;8.744;2023-06-10T10:20:20;3.55;;;2.30;;
10979;SDS011;5543;51.734;8.744;2023-06-10T10:22:52;2.30;;;2.10;;
10979;SDS011;5543;51.734;8.744;2023-06-10T10:25:23;2.75;;;2.47;;
10979;SDS011;5543;51.734;8.744;2023-06-10T10:27:55;1.90;;;1.80;;
10979;SDS011;5543;51.734;8.744;2023-06-10T10:30:26;2.08;;;1.98;;
10979;SDS011;5543;51.734;8.744;2023-06-10T10:32:57;3.00;;;2.70;;
10979;SDS011;5543;51.734;8.744;2023-06-10T10:35:29;2.35;;;1.88;;
10979;SDS011;5543;51.734;8.744;2023-06-10T10:38:00;4.10;;;2.15;;
10979;SDS011;5543;51.734;8.744;2023-06-10T10:40:30;2.72;;;2.08;;
10979;SDS011;5543;51.734;8.744;2023-06-10T10:42:59;2.28;;;2.08;;
10979;SDS011;5543;51.734;8.744;2023-06-10T10:45:28;2.35;;;2.15;;
10979;SDS011;5543;51.734;8.744;2023-06-10T10:47:56;2.60;;;2.20;;
10979;SDS011;5543;51.734;8.744;2023-06-10T10:50:25;2.35;;;2.15;;
10979;SDS011;5543;51.734;8.744;2023-06-10T10:52:58;2.60;;;2.38;;
10979;SDS011;5543;51.734;8.744;2023-06-10T10:55:29;3.08;;;2.80;;
10979;SDS011;5543;51.734;8.744;2023-06-10T10:57:58;2.70;;;2.50;;
10979;SDS011;5543;51.734;8.744;2023-06-10T11:00:30;2.40;;;2.20;;
10979;SDS011;5543;51.734;8.744;2023-06-10T11:02:59;2.80;;;2.60;;
10979;SDS011;5543;51.734;8.744;2023-06-10T11:05:39;2.97;;;2.78;;
10979;SDS011;5543;51.734;8.744;2023-06-10T11:08:11;2.58;;;2.38;;
10979;SDS011;5543;51.734;8.744;2023-06-10T11:10:39;3.75;;;2.60;;
10979;SDS011;5543;51.734;8.744;2023-06-10T11:13:08;2.72;;;2.50;;
10979;SDS011;5543;51.734;8.744;2023-06-10T11:15:39;7.55;;;2.33;;
10979;SDS011;5543;51.734;8.744;2023-06-10T11:18:14;2.50;;;2.30;;
10979;SDS011;5543;51.734;8.744;2023-06-10T11:20:52;9.77;;;2.63;;
10979;SDS011;5543;51.734;8.744;2023-06-10T11:26:17;6.68;;;2.80;;
10979;SDS011;5543;51.734;8.744;2023-06-10T11:29:03;2.88;;;2.63;;
10979;SDS011;5543;51.734;8.744;2023-06-10T11:31:43;4.43;;;2.95;;
10979;SDS011;5543;51.734;8.744;2023-06-10T11:34:13;3.22;;;2.55;;
10979;SDS011;5543;51.734;8.744;2023-06-10T11:36:44;2.75;;;2.55;;
10979;SDS011;5543;51.734;8.744;2023-06-10T11:39:12;3.05;;;2.60;;
10979;SDS011;5543;51.734;8.744;2023-06-10T11:41:41;3.10;;;2.90;;
10979;SDS011;5543;51.734;8.744;2023-06-10T11:44:11;2.70;;;2.50;;
10979;SDS011;5543;51.734;8.744;2023-06-10T11:46:45;2.83;;;2.63;;
10979;SDS011;5543;51.734;8.744;2023-06-10T11:49:15;3.05;;;2.80;;
10979;SDS011;5543;51.734;8.744;2023-06-10T11:51:45;2.63;;;2.42;;
10979;SDS011;5543;51.734;8.744;2023-06-10T11:54:18;3.00;;;2.80;;
10979;SDS011;5543;51.734;8.744;2023-06-10T11:56:46;3.17;;;2.90;;
10979;SDS011;5543;51.734;8.744;2023-06-10T11:59:15;2.80;;;2.60;;
10979;SDS011;5543;51.734;8.744;2023-06-10T12:01:44;2.70;;;2.50;;
10979;SDS011;5543;51.734;8.744;2023-06-10T12:04:14;3.50;;;2.83;;
10979;SDS011;5543;51.734;8.744;2023-06-10T12:06:46;2.85;;;2.65;;
10979;SDS011;5543;51.734;8.744;2023-06-10T12:09:17;2.67;;;2.47;;
10979;SDS011;5543;51.734;8.744;2023-06-10T12:11:49;2.53;;;2.33;;
10979;SDS011;5543;51.734;8.744;2023-06-10T12:17:22;4.25;;;2.58;;
10979;SDS011;5543;51.734;8.744;2023-06-10T12:19:52;2.70;;;2.50;;
10979;SDS011;5543;51.734;8.744;2023-06-10T12:22:22;2.85;;;2.50;;
10979;SDS011;5543;51.734;8.744;2023-06-10T12:24:58;3.05;;;2.65;;
10979;SDS011;5543;51.734;8.744;2023-06-10T12:27:29;3.38;;;2.65;;
10979;SDS011;5543;51.734;8.744;2023-06-10T12:29:58;2.78;;;2.58;;
10979;SDS011;5543;51.734;8.744;2023-06-10T12:32:39;3.28;;;2.97;;
10979;SDS011;5543;51.734;8.744;2023-06-10T12:35:09;2.90;;;2.60;;
10979;SDS011;5543;51.734;8.744;2023-06-10T12:37:41;3.08;;;2.78;;
10979;SDS011;5543;51.734;8.744;2023-06-10T12:40:10;3.15;;;2.85;;
10979;SDS011;5543;51.734;8.744;2023-06-10T12:42:39;3.28;;;2.90;;
10979;SDS011;5543;51.734;8.744;2023-06-10T12:45:08;2.85;;;2.60;;
10979;SDS011;5543;51.734;8.744;2023-06-10T12:47:39;2.88;;;2.53;;
10979;SDS011;5543;51.734;8.744;2023-06-10T12:50:08;3.03;;;2.70;;
10979;SDS011;5543;51.734;8.744;2023-06-10T12:52:38;2.92;;;2.72;;
10979;SDS011;5543;51.734;8.744;2023-06-10T12:55:08;3.00;;;2.70;;
10979;SDS011;5543;51.734;8.744;2023-06-10T12:57:37;3.03;;;2.58;;
10979;SDS011;5543;51.734;8.744;2023-06-10T13:00:16;3.55;;;2.72;;
10979;SDS011;5543;51.734;8.744;2023-06-10T13:02:46;2.78;;;2.50;;
10979;SDS011;5543;51.734;8.744;2023-06-10T13:05:16;2.95;;;2.65;;
10979;SDS011;5543;51.734;8.744;2023-06-10T13:07:47;3.42;;;2.80;;
10979;SDS011;5543;51.734;8.744;2023-06-10T13:10:15;5.53;;;2.67;;
10979;SDS011;5543;51.734;8.744;2023-06-10T13:12:47;8.82;;;2.80;;
10979;SDS011;5543;51.734;8.744;2023-06-10T13:15:16;3.28;;;2.97;;
10979;SDS011;5543;51.734;8.744;2023-06-10T13:17:44;2.47;;;2.28;;
10979;SDS011;5543;51.734;8.744;2023-06-10T13:20:15;15.65;;;3.10;;
10979;SDS011;5543;51.734;8.744;2023-06-10T13:22:44;3.05;;;2.75;;
10979;SDS011;5543;51.734;8.744;2023-06-10T13:25:14;2.80;;;2.47;;
10979;SDS011;5543;51.734;8.744;2023-06-10T13:27:42;5.78;;;2.72;;
10979;SDS011;5543;51.734;8.744;2023-06-10T13:30:11;4.30;;;2.70;;
10979;SDS011;5543;51.734;8.744;2023-06-10T13:32:39;15.35;;;2.70;;
10979;SDS011;5543;51.734;8.744;2023-06-10T13:35:08;4.88;;;2.53;;
10979;SDS011;5543;51.734;8.744;2023-06-10T13:37:37;3.10;;;2.80;;
10979;SDS011;5543;51.734;8.744;2023-06-10T13:40:07;2.78;;;2.55;;
10979;SDS011;5543;51.734;8.744;2023-06-10T13:42:36;4.50;;;2.80;;
10979;SDS011;5543;51.734;8.744;2023-06-10T13:45:05;4.95;;;2.67;;
10979;SDS011;5543;51.734;8.744;2023-06-10T13:47:36;2.67;;;2.47;;
10979;SDS011;5543;51.734;8.744;2023-06-10T13:50:05;3.20;;;2.40;;
10979;SDS011;5543;51.734;8.744;2023-06-10T13:52:34;3.00;;;2.70;;
10979;SDS011;5543;51.734;8.744;2023-06-10T13:55:03;2.80;;;2.50;;
10979;SDS011;5543;51.734;8.744;2023-06-10T13:57:33;3.20;;;2.90;;
10979;SDS011;5543;51.734;8.744;2023-06-10T14:00:01;2.58;;;2.35;;
10979;SDS011;5543;51.734;8.744;2023-06-10T14:02:29;3.78;;;2.15;;
10979;SDS011;5543;51.734;8.744;2023-06-10T14:04:57;2.70;;;2.50;;
10979;SDS011;5543;51.734;8.744;2023-06-10T14:07:25;2.50;;;2.30;;
10979;SDS011;5543;51.734;8.744;2023-06-10T14:09:54;2.75;;;2.47;;
10979;SDS011;5543;51.734;8.744;2023-06-10T14:12:22;5.32;;;2.38;;
10979;SDS011;5543;51.734;8.744;2023-06-10T14:14:52;2.40;;;2.20;;
10979;SDS011;5543;51.734;8.744;2023-06-10T14:17:20;4.68;;;4.28;;
10979;SDS011;5543;51.734;8.744;2023-06-10T14:19:51;2.58;;;2.38;;
10979;SDS011;5543;51.734;8.744;2023-06-10T14:22:19;3.45;;;3.15;;
10979;SDS011;5543;51.734;8.744;2023-06-10T14:24:47;3.67;;;2.65;;
10979;SDS011;5543;51.734;8.744;2023-06-10T14:27:15;3.22;;;2.70;;
10979;SDS011;5543;51.734;8.744;2023-06-10T14:29:43;4.22;;;2.88;;
10979;SDS011;5543;51.734;8.744;2023-06-10T14:32:12;2.85;;;2.63;;
10979;SDS011;5543;51.734;8.744;2023-06-10T14:34:41;2.78;;;2.58;;
10979;SDS011;5543;51.734;8.744;2023-06-10T14:37:10;2.83;;;2.55;;
10979;SDS011;5543;51.734;8.744;2023-06-10T14:39:38;3.30;;;2.47;;
10979;SDS011;5543;51.734;8.744;2023-06-10T14:42:07;2.60;;;2.40;;
10979;SDS011;5543;51.734;8.744;2023-06-10T14:44:35;2.92;;;2.60;;
10979;SDS011;5543;51.734;8.744;2023-06-10T14:47:03;9.93;;;2.42;;
10979;SDS011;5543;51.734;8.744;2023-06-10T14:49:33;2.50;;;2.30;;
10979;SDS011;5543;51.734;8.744;2023-06-10T14:52:01;3.20;;;2.28;;
10979;SDS011;5543;51.734;8.744;2023-06-10T14:54:29;2.83;;;2.55;;
10979;SDS011;5543;51.734;8.744;2023-06-10T14:56:57;4.00;;;2.75;;
10979;SDS011;5543;51.734;8.744;2023-06-10T14:59:26;2.50;;;2.30;;
10979;SDS011;5543;51.734;8.744;2023-06-10T15:01:54;3.33;;;2.60;;
10979;SDS011;5543;51.734;8.744;2023-06-10T15:04:22;3.05;;;2.25;;
10979;SDS011;5543;51.734;8.744;2023-06-10T15:06:52;2.92;;;2.15;;
10979;SDS011;5543;51.734;8.744;2023-06-10T15:09:20;2.60;;;2.35;;
10979;SDS011;5543;51.734;8.744;2023-06-10T15:11:48;3.17;;;2.35;;
10979;SDS011;5543;51.734;8.744;2023-06-10T15:14:16;3.80;;;2.50;;
10979;SDS011;5543;51.734;8.744;2023-06-10T15:16:44;2.95;;;2.60;;
10979;SDS011;5543;51.734;8.744;2023-06-10T15:19:12;2.47;;;2.08;;
10979;SDS011;5543;51.734;8.744;2023-06-10T15:21:41;3.00;;;2.50;;